Terminal Aerodrome Forecast
Issued by NWS Amarillo, TX

Home | Current Version | Previous Version | Text Only | Print | Product List | Glossary On
Versions: 1 2 3 4 5 6 7 8 9 10 11 12 13 14
000
FTUS44 KAMA 301100
TAFDHT
TAF
KDHT 301135Z 3012/3112 19007KT P6SM OVC100
     FM301500 19014KT P6SM OVC050
     FM301900 18012KT P6SM OVC020
     FM310100 18010KT 3SM -RASN BR OVC007=

USA.gov is the U.S. government's official web portal to all federal, state and local government web resources and services.